Aviation Digital Data Service (ADDS)

Output produced by METARs form (1807 UTC 24 June 2018)
found at http://aviationweather.gov/adds/metars/
 
KCXO 241721Z 2418/2518 17014KT P6SM SCT045 
     FM250100 15011KT P6SM SCT040 
     FM250600 16008KT P6SM SCT015 BKN025 
     FM251500 17013G19KT P6SM SCT025 BKN035